Time;durP1;ratioP1;P1;durP2;ratioP2;P2;SDS_P1;SDS_P2;PMS_P1;PMS_P2;Temp;Humidity;BMP_temperature;BMP_pressure;BME280_temperature;BME280_humidity;BME280_pressure;Samples;Min_cycle;Max_cycle;Signal;HPM_P1;HPM_P2
2023/12/02 00:02:21;;;;;;;;;;;;;;;3.04;68.67;100661.94;7359997;19;19919;-61
2023/12/02 00:04:47;;;;;;;;;;;;;;;3.07;68.64;100661.06;7352615;19;19918;-60
2023/12/02 00:07:12;;;;;;;;;;;;;;;3.08;68.88;100662.81;7361739;19;19923;-61
2023/12/02 00:09:38;;;;;;;;;;;;;;;3.08;68.72;100663.66;7359440;19;19922;-60
2023/12/02 00:12:03;;;;;;;;;;;;;;;3.11;68.86;100662.84;7361186;19;19919;-61
2023/12/02 00:14:29;;;;;;;;;;;;;;;3.11;68.98;100657.69;7362993;19;19922;-61
2023/12/02 00:16:54;;;;;;;;;;;;;;;3.12;69.03;100660.25;7363083;19;19919;-61
2023/12/02 00:19:19;;;;;;;;;;;;;;;3.13;68.79;100650.78;7361451;19;19923;-61
2023/12/02 00:21:45;;;;;;;;;;;;;;;3.14;68.81;100655.09;7364146;19;19918;-61
2023/12/02 00:24:10;;;;;;;;;;;;;;;3.15;68.71;100654.28;7354414;19;20462;-61
2023/12/02 00:26:35;;;;;;;;;;;;;;;3.15;69.01;100654.28;7360231;19;19921;-60
2023/12/02 00:29:01;;;;;;;;;;;;;;;3.16;69.09;100661.16;7370000;19;20311;-61
2023/12/02 00:31:26;;;;;;;;;;;;;;;3.03;68.86;100629.22;7361691;19;19990;-61
2023/12/02 00:33:51;;;;;;;;;;;;;;;3.18;68.98;100643.94;7362404;19;19938;-60
2023/12/02 00:36:16;;;;;;;;;;;;;;;3.20;68.73;100647.44;7364194;19;19940;-60
2023/12/02 00:38:42;;;;;;;;;;;;;;;3.23;69.13;100647.41;7365080;19;20291;-61
2023/12/02 00:41:10;;;;;;;;;;;;;;;3.24;69.09;100651.72;7359406;19;19918;-61
2023/12/02 00:43:36;;;;;;;;;;;;;;;3.26;68.90;100647.44;7360443;19;20267;-61
2023/12/02 00:46:01;;;;;;;;;;;;;;;3.30;69.25;100650.94;7363883;19;20891;-61
2023/12/02 00:48:26;;;;;;;;;;;;;;;3.31;69.25;100650.94;7365286;19;19926;-61
2023/12/02 00:50:51;;;;;;;;;;;;;;;3.34;69.24;100640.59;7364370;19;19970;-61
2023/12/02 00:53:17;;;;;;;;;;;;;;;3.36;68.79;100643.22;7364684;19;19944;-61
2023/12/02 00:55:42;;;;;;;;;;;;;;;3.38;69.15;100644.94;7365085;19;20347;-60
2023/12/02 00:58:07;;;;;;;;;;;;;;;3.41;69.23;100640.66;7362564;19;19946;-61
2023/12/02 01:00:32;;;;;;;;;;;;;;;3.42;69.23;100647.53;7367103;19;19927;-61
2023/12/02 01:02:58;;;;;;;;;;;;;;;3.43;69.18;100644.09;7360808;19;20275;-60
2023/12/02 01:05:23;;;;;;;;;;;;;;;3.45;68.83;100644.97;7363373;19;19910;-61
2023/12/02 01:07:48;;;;;;;;;;;;;;;3.45;69.06;100642.38;7363347;19;19914;-61
2023/12/02 01:10:14;;;;;;;;;;;;;;;3.45;68.64;100645.84;7365570;19;19968;-61
2023/12/02 01:12:40;;;;;;;;;;;;;;;3.46;69.07;100651.88;7362891;19;19919;-60
2023/12/02 01:15:06;;;;;;;;;;;;;;;3.45;68.68;100642.38;7360956;19;19923;-61
2023/12/02 01:17:31;;;;;;;;;;;;;;;3.44;68.62;100648.41;7363729;19;19929;-60
2023/12/02 01:19:56;;;;;;;;;;;;;;;3.43;68.86;100649.25;7362912;19;19948;-60
2023/12/02 01:22:21;;;;;;;;;;;;;;;3.42;68.91;100642.38;7354410;19;19915;-60
2023/12/02 01:24:47;;;;;;;;;;;;;;;3.40;68.82;100644.97;7362974;19;19951;-60
2023/12/02 01:27:12;;;;;;;;;;;;;;;3.38;68.68;100633.75;7361710;19;19918;-61
2023/12/02 01:29:37;;;;;;;;;;;;;;;3.37;68.75;100638.06;7351971;19;19921;-60
2023/12/02 01:32:03;;;;;;;;;;;;;;;3.35;68.53;100629.44;7357806;19;20432;-60
2023/12/02 01:34:28;;;;;;;;;;;;;;;3.35;68.93;100642.34;7361630;19;19926;-61
2023/12/02 01:36:53;;;;;;;;;;;;;;;3.34;68.55;100632.00;7364429;19;19922;-61
2023/12/02 01:39:18;;;;;;;;;;;;;;;3.33;68.74;100638.03;7362017;19;19933;-61
2023/12/02 01:41:44;;;;;;;;;;;;;;;3.32;68.92;100642.31;7362796;19;19948;-61
2023/12/02 01:44:11;;;;;;;;;;;;;;;3.30;68.51;100631.13;7353840;19;20350;-61
2023/12/02 01:46:36;;;;;;;;;;;;;;;3.31;68.70;100634.59;7371095;19;19919;-61
2023/12/02 01:49:02;;;;;;;;;;;;;;;3.30;68.62;100638.88;7363570;19;20531;-61
2023/12/02 01:51:27;;;;;;;;;;;;;;;3.28;68.68;100640.56;7360812;19;19914;-61
2023/12/02 01:53:53;;;;;;;;;;;;;;;3.25;68.87;100630.25;7359654;19;19930;-61
2023/12/02 01:56:18;;;;;;;;;;;;;;;3.24;68.89;100631.06;7361346;19;19919;-60
2023/12/02 01:58:44;;;;;;;;;;;;;;;3.24;68.67;100636.25;7360273;19;19983;-60
2023/12/02 02:01:09;;;;;;;;;;;;;;;3.22;68.85;100635.38;7360577;19;19915;-60
2023/12/02 02:03:34;;;;;;;;;;;;;;;3.21;68.65;100631.09;7364138;19;19926;-61
2023/12/02 02:06:00;;;;;;;;;;;;;;;3.20;68.36;100641.41;7368896;19;19914;-61
2023/12/02 02:08:25;;;;;;;;;;;;;;;3.17;68.64;100639.66;7377803;19;19919;-61
2023/12/02 02:10:54;;;;;;;;;;;;;;;3.16;68.60;100635.34;7377254;19;20959;-61
2023/12/02 02:13:20;;;;;;;;;;;;;;;3.13;68.49;100636.19;7374694;19;19935;-60
2023/12/02 02:15:45;;;;;;;;;;;;;;;3.13;68.66;100640.47;7376389;19;20727;-60
2023/12/02 02:18:10;;;;;;;;;;;;;;;3.10;68.82;100635.31;7362396;19;19941;-61
2023/12/02 02:20:35;;;;;;;;;;;;;;;3.09;68.84;100636.16;7375175;19;19926;-61
2023/12/02 02:23:01;;;;;;;;;;;;;;;3.08;68.80;100635.28;7377942;19;19999;-60
2023/12/02 02:25:26;;;;;;;;;;;;;;;3.07;68.88;100643.88;7376735;19;19923;-60
2023/12/02 02:27:51;;;;;;;;;;;;;;;3.07;68.70;100645.59;7377577;19;19918;-61
2023/12/02 02:30:17;;;;;;;;;;;;;;;3.07;68.62;100645.59;7375098;19;19952;-60
2023/12/02 02:32:42;;;;;;;;;;;;;;;3.06;68.53;100655.06;7376836;19;20426;-60
2023/12/02 02:35:07;;;;;;;;;;;;;;;3.05;68.99;100647.31;7377059;19;19919;-60
2023/12/02 02:37:33;;;;;;;;;;;;;;;3.06;68.87;100643.88;7367115;19;20339;-61
2023/12/02 02:39:58;;;;;;;;;;;;;;;3.05;68.83;100642.16;7376472;19;20027;-60
2023/12/02 02:42:23;;;;;;;;;;;;;;;3.04;68.66;100646.47;7365843;19;20509;-61
2023/12/02 02:44:48;;;;;;;;;;;;;;;3.04;68.73;100645.56;7372895;19;19990;-61
2023/12/02 02:47:14;;;;;;;;;;;;;;;3.03;68.84;100643.84;7368255;19;19914;-61
2023/12/02 02:49:42;;;;;;;;;;;;;;;3.02;68.60;100639.53;7378033;19;20275;-61
2023/12/02 02:52:07;;;;;;;;;;;;;;;3.00;68.54;100642.13;7371500;19;19922;-60
2023/12/02 02:54:33;;;;;;;;;;;;;;;2.99;68.51;100644.66;7377057;19;19943;-61
2023/12/02 02:56:58;;;;;;;;;;;;;;;2.97;68.76;100643.81;7364658;19;19911;-60
2023/12/02 02:59:23;;;;;;;;;;;;;;;2.96;68.74;100644.66;7379660;19;19918;-61
2023/12/02 03:01:48;;;;;;;;;;;;;;;2.94;68.65;100644.66;7376905;19;19915;-61
2023/12/02 03:04:14;;;;;;;;;;;;;;;2.93;68.48;100642.91;7376215;19;19929;-61
2023/12/02 03:06:39;;;;;;;;;;;;;;;2.92;68.76;100640.34;7376892;19;20331;-61
2023/12/02 03:09:11;;;;;;;;;;;;;;;2.89;68.65;100636.03;7376356;19;19933;-61
2023/12/02 03:11:36;;;;;;;;;;;;;;;2.86;68.43;100631.69;7369351;19;19930;-61
2023/12/02 03:14:02;;;;;;;;;;;;;;;2.83;68.61;100639.41;7376193;19;20248;-61
2023/12/02 03:16:27;;;;;;;;;;;;;;;2.82;68.44;100639.41;7366685;19;20343;-60
2023/12/02 03:18:53;;;;;;;;;;;;;;;2.79;68.71;100645.41;7369337;19;19935;-61
2023/12/02 03:21:19;;;;;;;;;;;;;;;2.76;68.77;100642.78;7366144;19;20386;-61
2023/12/02 03:23:45;;;;;;;;;;;;;;;2.73;68.44;100641.91;7359433;19;19926;-61
2023/12/02 03:26:12;;;;;;;;;;;;;;;2.70;68.45;100644.47;7364285;19;20363;-60
2023/12/02 03:28:37;;;;;;;;;;;;;;;2.67;68.58;100640.13;7375783;19;19936;-61
2023/12/02 03:31:02;;;;;;;;;;;;;;;2.65;68.56;100641.00;7371982;19;19915;-60
2023/12/02 03:33:28;;;;;;;;;;;;;;;2.60;68.41;100639.22;7367138;19;19925;-61
2023/12/02 03:35:53;;;;;;;;;;;;;;;2.59;68.73;100641.81;7366412;19;19918;-61
2023/12/02 03:38:19;;;;;;;;;;;;;;;2.57;68.57;100638.31;7370219;19;19922;-61
2023/12/02 03:40:44;;;;;;;;;;;;;;;2.53;68.67;100637.44;7358979;19;19990;-60
2023/12/02 03:43:10;;;;;;;;;;;;;;;2.51;68.65;100638.28;7364851;19;20346;-61
2023/12/02 03:45:35;;;;;;;;;;;;;;;2.48;68.38;100635.66;7365907;19;20288;-61
2023/12/02 03:48:00;;;;;;;;;;;;;;;2.46;68.56;100635.66;7369943;19;20334;-60
2023/12/02 03:50:25;;;;;;;;;;;;;;;2.45;68.53;100633.06;7367910;19;19925;-60
2023/12/02 03:52:51;;;;;;;;;;;;;;;2.43;68.66;100634.75;7362825;19;19914;-60
2023/12/02 03:55:18;;;;;;;;;;;;;;;2.41;68.62;100634.75;7366779;19;19958;-61
2023/12/02 03:57:43;;;;;;;;;;;;;;;2.40;68.65;100634.75;7363740;19;19930;-61
2023/12/02 04:00:11;;;;;;;;;;;;;;;2.37;68.91;100620.09;7366420;19;19923;-61
2023/12/02 04:02:39;;;;;;;;;;;;;;;2.36;68.58;100617.53;7365782;19;19970;-61
2023/12/02 04:05:08;;;;;;;;;;;;;;;2.34;68.42;100620.94;7368209;19;19924;-61
2023/12/02 04:07:34;;;;;;;;;;;;;;;2.31;68.61;100620.06;7370812;19;19925;-61
2023/12/02 04:09:59;;;;;;;;;;;;;;;2.30;68.87;100618.34;7373877;19;19926;-61
2023/12/02 04:12:24;;;;;;;;;;;;;;;2.28;68.70;100620.91;7365375;19;19917;-61
2023/12/02 04:14:50;;;;;;;;;;;;;;;2.27;68.58;100619.16;7366211;19;19955;-61
2023/12/02 04:17:15;;;;;;;;;;;;;;;2.25;68.81;100620.84;7326889;19;19911;-61
2023/12/02 04:19:40;;;;;;;;;;;;;;;2.23;68.69;100621.69;7360013;19;20339;-61
2023/12/02 04:22:06;;;;;;;;;;;;;;;2.20;68.54;100617.38;7366674;19;19930;-61
2023/12/02 04:24:31;;;;;;;;;;;;;;;2.18;68.72;100624.25;7366460;19;19915;-60
2023/12/02 04:26:56;;;;;;;;;;;;;;;2.16;68.84;100620.75;7365708;19;19990;-61
2023/12/02 04:29:22;;;;;;;;;;;;;;;2.14;68.76;100626.75;7365626;19;20386;-61
2023/12/02 04:31:47;;;;;;;;;;;;;;;2.11;68.63;100632.72;7365087;19;19919;-61
2023/12/02 04:34:12;;;;;;;;;;;;;;;2.09;68.52;100624.13;7365614;19;19921;-61
2023/12/02 04:36:37;;;;;;;;;;;;;;;2.07;68.84;100629.25;7366054;19;19939;-61
2023/12/02 04:39:04;;;;;;;;;;;;;;;2.07;68.51;100630.97;7363310;19;19945;-61
2023/12/02 04:41:29;;;;;;;;;;;;;;;2.04;68.64;100621.50;7364925;19;19956;-61
2023/12/02 04:43:55;;;;;;;;;;;;;;;2.02;68.65;100623.19;7363501;19;20602;-61
2023/12/02 04:46:20;;;;;;;;;;;;;;;2.01;68.65;100628.34;7366329;19;19923;-61
2023/12/02 04:48:45;;;;;;;;;;;;;;;1.99;68.70;100627.47;7363316;19;19974;-61
2023/12/02 04:51:10;;;;;;;;;;;;;;;1.98;68.71;100631.75;7369842;19;19915;-60
2023/12/02 04:53:36;;;;;;;;;;;;;;;1.97;68.59;100634.28;7358685;19;19927;-61
2023/12/02 04:56:01;;;;;;;;;;;;;;;1.94;68.71;100629.97;7369934;19;19914;-61
2023/12/02 04:58:26;;;;;;;;;;;;;;;1.95;68.77;100633.41;7372420;19;20553;-60
2023/12/02 05:00:52;;;;;;;;;;;;;;;1.94;68.90;100634.28;7364681;19;19926;-60
2023/12/02 05:03:17;;;;;;;;;;;;;;;1.93;68.98;100635.13;7365477;19;19915;-61
2023/12/02 05:05:43;;;;;;;;;;;;;;;1.92;69.00;100636.81;7359607;19;19923;-61
2023/12/02 05:08:08;;;;;;;;;;;;;;;1.92;69.16;100635.94;7366022;19;20387;-60
2023/12/02 05:10:33;;;;;;;;;;;;;;;1.90;69.19;100633.38;7363580;19;20738;-61
2023/12/02 05:12:59;;;;;;;;;;;;;;;1.89;69.26;100635.94;7364786;19;19985;-61
2023/12/02 05:15:24;;;;;;;;;;;;;;;1.90;68.80;100642.81;7363989;19;19922;-60
2023/12/02 05:17:50;;;;;;;;;;;;;;;1.88;68.76;100644.50;7363310;19;20162;-60
2023/12/02 05:20:16;;;;;;;;;;;;;;;1.80;68.90;100629.81;7363878;19;19950;-61
2023/12/02 05:22:41;;;;;;;;;;;;;;;1.86;69.20;100638.47;7362797;19;19914;-61
2023/12/02 05:25:06;;;;;;;;;;;;;;;1.84;69.00;100637.59;7366599;19;19922;-60
2023/12/02 05:27:32;;;;;;;;;;;;;;;1.82;68.96;100645.28;7364649;19;19915;-60
2023/12/02 05:29:58;;;;;;;;;;;;;;;1.80;68.97;100639.25;7359450;19;20259;-61
2023/12/02 05:32:23;;;;;;;;;;;;;;;1.80;68.82;100640.13;7364189;19;19915;-60
2023/12/02 05:34:48;;;;;;;;;;;;;;;1.77;68.91;100640.09;7362960;19;19937;-62
2023/12/02 05:37:13;;;;;;;;;;;;;;;1.76;69.01;100640.06;7366634;19;20017;-61
2023/12/02 05:39:39;;;;;;;;;;;;;;;1.75;69.14;100638.34;7366035;19;20493;-61
2023/12/02 05:42:04;;;;;;;;;;;;;;;1.74;68.89;100637.47;7360304;19;20235;-61
2023/12/02 05:44:29;;;;;;;;;;;;;;;1.73;68.73;100640.91;7364123;19;19953;-60
2023/12/02 05:46:54;;;;;;;;;;;;;;;1.72;69.16;100635.72;7356365;19;19919;-61
2023/12/02 05:49:21;;;;;;;;;;;;;;;1.71;68.83;100637.41;7367012;19;20658;-61
2023/12/02 05:51:46;;;;;;;;;;;;;;;1.69;69.14;100633.97;7373239;19;19933;-61
2023/12/02 05:54:11;;;;;;;;;;;;;;;1.68;68.97;100637.41;7371798;19;19931;-60
2023/12/02 05:56:36;;;;;;;;;;;;;;;1.67;68.82;100630.50;7363691;19;20645;-61
2023/12/02 05:59:02;;;;;;;;;;;;;;;1.66;69.00;100638.22;7365711;19;19984;-61
2023/12/02 06:01:27;;;;;;;;;;;;;;;1.65;68.88;100632.22;7351925;19;19919;-60
2023/12/02 06:03:52;;;;;;;;;;;;;;;1.64;69.17;100639.91;7361466;19;19925;-61
2023/12/02 06:06:18;;;;;;;;;;;;;;;1.64;69.11;100640.78;7366614;19;19927;-60
2023/12/02 06:08:43;;;;;;;;;;;;;;;1.64;68.91;100630.47;7360269;19;19922;-60
2023/12/02 06:11:08;;;;;;;;;;;;;;;1.64;69.35;100635.63;7367122;19;19942;-60
2023/12/02 06:13:34;;;;;;;;;;;;;;;1.65;69.17;100637.34;7364228;19;19919;-61
2023/12/02 06:15:59;;;;;;;;;;;;;;;1.63;69.05;100628.75;7365328;19;19927;-60
2023/12/02 06:18:24;;;;;;;;;;;;;;;1.63;69.01;100628.75;7360103;19;19930;-61
2023/12/02 06:20:49;;;;;;;;;;;;;;;1.64;69.21;100627.91;7358765;19;19914;-61
2023/12/02 06:23:15;;;;;;;;;;;;;;;1.64;68.98;100619.31;7361117;19;19950;-61
2023/12/02 06:25:40;;;;;;;;;;;;;;;1.64;69.33;100615.03;7362646;19;19939;-61
2023/12/02 06:28:06;;;;;;;;;;;;;;;1.64;69.31;100619.31;7360507;19;19918;-60
2023/12/02 06:30:31;;;;;;;;;;;;;;;1.63;69.37;100613.31;7363137;19;20344;-61
2023/12/02 06:32:56;;;;;;;;;;;;;;;1.64;69.27;100622.75;7355768;19;20263;-61
2023/12/02 06:35:22;;;;;;;;;;;;;;;1.64;69.40;100620.19;7364312;19;19946;-60
2023/12/02 06:37:47;;;;;;;;;;;;;;;1.64;69.16;100620.19;7361162;19;19932;-61
2023/12/02 06:40:12;;;;;;;;;;;;;;;1.64;69.08;100624.47;7363296;19;19919;-61
2023/12/02 06:42:38;;;;;;;;;;;;;;;1.64;69.10;100614.19;7361656;19;19926;-60
2023/12/02 06:45:04;;;;;;;;;;;;;;;1.65;69.04;100615.91;7363672;19;20375;-61
2023/12/02 06:47:29;;;;;;;;;;;;;;;1.65;69.57;100616.75;7360880;19;19931;-61
2023/12/02 06:49:54;;;;;;;;;;;;;;;1.66;69.32;100610.75;7363432;19;20498;-61
2023/12/02 06:52:19;;;;;;;;;;;;;;;1.66;69.12;100609.91;7364072;19;19963;-61
2023/12/02 06:54:45;;;;;;;;;;;;;;;1.66;69.54;100612.47;7361370;19;20026;-61
2023/12/02 06:57:10;;;;;;;;;;;;;;;1.66;69.14;100608.19;7369075;19;19926;-61
2023/12/02 06:59:35;;;;;;;;;;;;;;;1.66;69.32;100612.47;7363776;19;20347;-61
2023/12/02 07:02:00;;;;;;;;;;;;;;;1.65;69.10;100601.31;7368717;19;19918;-60
2023/12/02 07:04:27;;;;;;;;;;;;;;;1.66;69.12;100603.03;7366957;19;19942;-61
2023/12/02 07:06:52;;;;;;;;;;;;;;;1.65;69.11;100609.03;7367434;19;19953;-61
2023/12/02 07:09:18;;;;;;;;;;;;;;;1.67;69.44;100616.78;7368551;19;19915;-61
2023/12/02 07:11:43;;;;;;;;;;;;;;;1.66;69.20;100612.47;7368830;19;20263;-60
2023/12/02 07:14:08;;;;;;;;;;;;;;;1.65;69.43;100614.19;7370759;19;20027;-61
2023/12/02 07:16:34;;;;;;;;;;;;;;;1.66;69.28;100612.47;7367417;19;19930;-60
2023/12/02 07:18:59;;;;;;;;;;;;;;;1.66;69.29;100612.47;7366793;19;19919;-60
2023/12/02 07:21:24;;;;;;;;;;;;;;;1.64;69.51;100612.47;7365217;19;20639;-61
2023/12/02 07:23:49;;;;;;;;;;;;;;;1.64;69.52;100609.91;7370053;19;19922;-60
2023/12/02 07:26:15;;;;;;;;;;;;;;;1.63;69.44;100610.75;7366086;19;20489;-60
2023/12/02 07:28:40;;;;;;;;;;;;;;;1.62;69.19;100606.41;7370095;19;19933;-61
2023/12/02 07:31:11;;;;;;;;;;;;;;;1.62;69.46;100605.56;7362444;19;19922;-61
2023/12/02 07:33:36;;;;;;;;;;;;;;;1.61;69.22;100608.97;7368349;19;19926;-61
2023/12/02 07:36:01;;;;;;;;;;;;;;;1.59;69.13;100606.41;7369009;19;20310;-61
2023/12/02 07:38:26;;;;;;;;;;;;;;;1.57;69.29;100608.06;7374251;19;19922;-61
2023/12/02 07:40:52;;;;;;;;;;;;;;;1.56;69.06;100606.34;7359041;19;19918;-61
2023/12/02 07:43:17;;;;;;;;;;;;;;;1.55;69.14;100607.19;7368277;19;19926;-60
2023/12/02 07:45:42;;;;;;;;;;;;;;;1.53;69.02;100614.06;7359192;19;19919;-60
2023/12/02 07:48:07;;;;;;;;;;;;;;;1.51;69.49;100613.16;7367740;19;19922;-61
2023/12/02 07:50:33;;;;;;;;;;;;;;;1.49;68.98;100612.28;7364719;19;19922;-61
2023/12/02 07:52:58;;;;;;;;;;;;;;;1.48;69.18;100623.41;7358468;19;19962;-61
2023/12/02 07:55:23;;;;;;;;;;;;;;;1.45;68.99;100624.22;7369666;19;20030;-61
2023/12/02 07:57:48;;;;;;;;;;;;;;;1.41;69.17;100625.03;7374794;19;19914;-61
2023/12/02 08:00:14;;;;;;;;;;;;;;;1.40;69.50;100630.16;7363622;19;20023;-61
2023/12/02 08:02:39;;;;;;;;;;;;;;;1.37;69.11;100624.97;7368038;19;19918;-60
2023/12/02 08:05:05;;;;;;;;;;;;;;;1.33;69.30;100629.22;7361453;19;19958;-61
2023/12/02 08:07:30;;;;;;;;;;;;;;;1.29;69.22;100628.31;7363522;19;20252;-61
2023/12/02 08:09:55;;;;;;;;;;;;;;;1.26;69.15;100625.69;7367522;19;19926;-60
2023/12/02 08:12:21;;;;;;;;;;;;;;;1.23;69.33;100627.38;7365277;19;19937;-61
2023/12/02 08:14:46;;;;;;;;;;;;;;;1.20;69.46;100630.75;7361759;19;19915;-60
2023/12/02 08:17:11;;;;;;;;;;;;;;;1.16;69.29;100626.41;7368565;19;19930;-60
2023/12/02 08:19:37;;;;;;;;;;;;;;;1.15;69.17;100623.81;7373650;19;20336;-61
2023/12/02 08:22:02;;;;;;;;;;;;;;;1.11;69.40;100632.31;7365999;19;19934;-61
2023/12/02 08:24:28;;;;;;;;;;;;;;;1.08;69.44;100622.00;7366081;19;19923;-61
2023/12/02 08:26:53;;;;;;;;;;;;;;;1.06;69.34;100621.97;7363421;19;20559;-61
2023/12/02 08:29:18;;;;;;;;;;;;;;;1.03;69.50;100625.38;7366270;19;20636;-61
2023/12/02 08:31:43;;;;;;;;;;;;;;;1.01;69.54;100626.19;7367142;19;19928;-61
2023/12/02 08:34:09;;;;;;;;;;;;;;;0.98;69.47;100623.56;7365011;19;19919;-60
2023/12/02 08:36:34;;;;;;;;;;;;;;;0.96;69.47;100627.81;7364788;19;19922;-60
2023/12/02 08:38:59;;;;;;;;;;;;;;;0.93;69.52;100622.66;7364156;19;19941;-61
2023/12/02 08:41:25;;;;;;;;;;;;;;;0.91;69.37;100624.31;7365294;19;19922;-62
2023/12/02 08:43:50;;;;;;;;;;;;;;;0.89;69.77;100634.56;7345586;19;19915;-60
2023/12/02 08:46:18;;;;;;;;;;;;;;;0.87;69.53;100638.84;7326322;19;19921;-59
2023/12/02 08:48:44;;;;;;;;;;;;;;;0.85;69.78;100634.50;7356558;19;19935;-60
2023/12/02 08:51:09;;;;;;;;;;;;;;;0.83;69.86;100633.63;7362576;19;19911;-60
2023/12/02 08:53:34;;;;;;;;;;;;;;;0.81;69.88;100640.44;7364143;19;19923;-59
2023/12/02 08:56:00;;;;;;;;;;;;;;;0.78;69.65;100641.25;7360380;19;19919;-60
2023/12/02 08:58:25;;;;;;;;;;;;;;;0.77;69.68;100648.13;7363552;19;19918;-59
2023/12/02 09:00:50;;;;;;;;;;;;;;;0.74;69.88;100642.91;7351901;19;19986;-60
2023/12/02 09:03:16;;;;;;;;;;;;;;;0.62;69.70;100629.00;7364680;19;20609;-60
2023/12/02 09:05:41;;;;;;;;;;;;;;;0.73;69.98;100646.31;7354680;19;19918;-60
2023/12/02 09:08:06;;;;;;;;;;;;;;;0.72;69.45;100649.75;7359669;19;20002;-59
2023/12/02 09:10:31;;;;;;;;;;;;;;;0.71;69.74;100642.88;7360868;19;19915;-59
2023/12/02 09:12:57;;;;;;;;;;;;;;;0.71;69.72;100649.69;7361191;19;19954;-59
2023/12/02 09:15:22;;;;;;;;;;;;;;;0.70;69.56;100641.13;7358686;19;20648;-59
2023/12/02 09:18:02;;;;;;;;;;;;;;;0.70;69.83;100642.84;7356469;19;20641;-59
2023/12/02 09:20:40;;;;;;;;;;;;;;;0.70;69.84;100648.84;7364570;19;19919;-60
2023/12/02 09:23:06;;;;;;;;;;;;;;;0.70;70.09;100650.53;7363143;19;19926;-59
2023/12/02 09:25:34;;;;;;;;;;;;;;;0.72;70.06;100648.88;7350577;19;19922;-59
2023/12/02 09:28:06;;;;;;;;;;;;;;;0.71;70.13;100650.59;7359956;19;19927;-59
2023/12/02 09:30:35;;;;;;;;;;;;;;;0.74;69.85;100652.31;7360586;19;19922;-59
2023/12/02 09:33:00;;;;;;;;;;;;;;;0.75;69.90;100654.06;7359448;19;19948;-60
2023/12/02 09:35:26;;;;;;;;;;;;;;;0.77;70.05;100658.41;7359951;19;19918;-60
2023/12/02 09:37:51;;;;;;;;;;;;;;;0.81;70.00;100653.28;7360694;19;20263;-60
2023/12/02 09:40:19;;;;;;;;;;;;;;;0.85;70.02;100655.06;7363137;19;20234;-60
2023/12/02 09:42:47;;;;;;;;;;;;;;;0.90;70.18;100653.44;7361940;19;19918;-59
2023/12/02 09:45:13;;;;;;;;;;;;;;;0.96;70.39;100656.09;7357519;19;19922;-59
2023/12/02 09:47:43;;;;;;;;;;;;;;;1.06;70.26;100660.53;7356806;19;19919;-59
2023/12/02 09:50:11;;;;;;;;;;;;;;;1.15;70.51;100647.81;7361304;19;19926;-60
2023/12/02 09:52:36;;;;;;;;;;;;;;;1.26;70.61;100653.97;7361887;19;19971;-59
2023/12/02 09:55:17;;;;;;;;;;;;;;;1.40;70.71;100661.03;7358583;19;20328;-59
2023/12/02 09:57:42;;;;;;;;;;;;;;;1.53;70.90;100650.06;7335694;19;19943;-59
2023/12/02 10:00:16;;;;;;;;;;;;;;;1.68;70.60;100658.00;7358691;19;20403;-59
2023/12/02 10:02:50;;;;;;;;;;;;;;;1.85;71.14;100652.19;7357799;19;20768;-59
2023/12/02 10:05:16;;;;;;;;;;;;;;;2.04;71.25;100659.28;7361919;19;19930;-60
2023/12/02 10:07:52;;;;;;;;;;;;;;;2.24;71.59;100660.38;7354979;19;19930;-59
2023/12/02 10:10:21;;;;;;;;;;;;;;;2.51;71.00;100658.91;7358663;19;19918;-60
2023/12/02 10:13:05;;;;;;;;;;;;;;;2.80;71.66;100649.72;7361987;19;19923;-59
2023/12/02 10:15:32;;;;;;;;;;;;;;;3.18;72.49;100654.28;7367115;19;19950;-60
2023/12/02 10:18:13;;;;;;;;;;;;;;;3.53;71.76;100651.03;7360789;19;19927;-59
2023/12/02 10:20:40;;;;;;;;;;;;;;;3.93;71.91;100653.81;7350038;19;20028;-60
2023/12/02 10:23:08;;;;;;;;;;;;;;;4.30;72.06;100647.88;7357501;19;19923;-59
2023/12/02 10:25:39;;;;;;;;;;;;;;;4.68;72.43;100655.69;7354833;19;19931;-60
2023/12/02 10:28:09;;;;;;;;;;;;;;;5.06;71.48;100646.19;7367487;19;19923;-60
2023/12/02 10:30:36;;;;;;;;;;;;;;;5.39;71.36;100651.31;7361575;19;20717;-59
2023/12/02 10:33:06;;;;;;;;;;;;;;;5.75;71.60;100652.06;7364206;19;19994;-60
2023/12/02 10:35:49;;;;;;;;;;;;;;;6.10;71.59;100645.91;7361790;19;19922;-62
2023/12/02 10:38:43;;;;;;;;;;;;;;;6.43;71.12;100640.47;7363606;19;20305;-60
2023/12/02 10:41:11;;;;;;;;;;;;;;;6.78;71.02;100641.97;7347561;19;19947;-60
2023/12/02 10:43:44;;;;;;;;;;;;;;;7.08;71.15;100639.97;7359376;19;19919;-60
2023/12/02 10:46:10;;;;;;;;;;;;;;;7.35;70.09;100637.13;7362304;19;19922;-58
2023/12/02 10:48:36;;;;;;;;;;;;;;;7.63;70.15;100639.41;7365798;19;19906;-60
2023/12/02 10:51:02;;;;;;;;;;;;;;;7.87;69.97;100639.13;7361691;19;19933;-60
2023/12/02 10:53:29;;;;;;;;;;;;;;;8.12;69.72;100638.78;7367090;19;19919;-59
2023/12/02 10:55:57;;;;;;;;;;;;;;;8.34;69.67;100635.00;7367662;19;19925;-59
2023/12/02 10:58:24;;;;;;;;;;;;;;;8.49;69.02;100618.34;7362972;19;20254;-59
2023/12/02 11:00:53;;;;;;;;;;;;;;;8.64;68.81;100623.28;7369721;19;20391;-60
2023/12/02 11:03:18;;;;;;;;;;;;;;;8.80;69.32;100623.91;7364022;19;19938;-60
2023/12/02 11:05:43;;;;;;;;;;;;;;;8.98;68.83;100628.81;7365182;19;20234;-59
2023/12/02 11:08:14;;;;;;;;;;;;;;;9.19;68.61;100621.50;7364464;19;20681;-60
2023/12/02 11:10:43;;;;;;;;;;;;;;;9.40;68.83;100623.69;7372272;19;19922;-60
2023/12/02 11:13:12;;;;;;;;;;;;;;;9.59;68.41;100617.25;7365248;19;19919;-60
2023/12/02 11:15:46;;;;;;;;;;;;;;;9.83;68.22;100622.81;7366948;19;19958;-59
2023/12/02 11:18:16;;;;;;;;;;;;;;;10.07;68.11;100622.31;7358420;19;19925;-60
2023/12/02 11:20:49;;;;;;;;;;;;;;;10.30;68.15;100619.22;7363895;19;20022;-60
2023/12/02 11:23:28;;;;;;;;;;;;;;;10.56;68.20;100617.75;7366166;19;19926;-60
2023/12/02 11:25:53;;;;;;;;;;;;;;;10.77;67.54;100612.00;7364031;19;20450;-59
2023/12/02 11:28:35;;;;;;;;;;;;;;;11.01;66.85;100615.75;7369167;19;19936;-60
2023/12/02 11:31:04;;;;;;;;;;;;;;;11.24;66.56;100603.84;7352666;19;19914;-59
2023/12/02 11:33:47;;;;;;;;;;;;;;;11.39;66.83;100606.03;7362275;19;20347;-60
2023/12/02 11:36:33;;;;;;;;;;;;;;;11.60;66.30;100604.56;7364584;19;20345;-60
2023/12/02 11:38:58;;;;;;;;;;;;;;;11.78;66.37;100603.19;7354101;19;19918;-60
2023/12/02 11:41:29;;;;;;;;;;;;;;;11.94;66.22;100604.47;7350353;19;19936;-60
2023/12/02 11:44:16;;;;;;;;;;;;;;;12.10;66.48;100600.50;7347131;19;19923;-60
2023/12/02 11:46:51;;;;;;;;;;;;;;;12.33;66.18;100591.94;7361732;19;19935;-61
2023/12/02 11:49:19;;;;;;;;;;;;;;;12.55;66.35;100597.34;7368672;19;19918;-60
2023/12/02 11:52:07;;;;;;;;;;;;;;;12.75;66.04;100587.97;7361573;19;19940;-60
2023/12/02 11:54:58;;;;;;;;;;;;;;;12.96;65.65;100593.34;7366243;19;19922;-58
2023/12/02 11:57:41;;;;;;;;;;;;;;;13.17;65.14;100593.50;7361880;19;19942;-60
2023/12/02 12:00:09;;;;;;;;;;;;;;;13.23;64.32;100586.31;7360880;19;20338;-60
2023/12/02 12:02:49;;;;;;;;;;;;;;;13.27;64.34;100586.19;7374380;19;19978;-59
2023/12/02 12:05:37;;;;;;;;;;;;;;;13.22;64.01;100578.50;7368888;19;19926;-60
2023/12/02 12:08:13;;;;;;;;;;;;;;;13.16;63.50;100581.31;7362517;19;19922;-60
2023/12/02 12:10:40;;;;;;;;;;;;;;;13.06;63.53;100580.75;7359163;19;19923;-60
2023/12/02 12:13:06;;;;;;;;;;;;;;;12.92;63.20;100580.38;7364940;19;19930;-60
2023/12/02 12:15:31;;;;;;;;;;;;;;;12.79;63.72;100579.97;7358541;19;19929;-59
2023/12/02 12:17:57;;;;;;;;;;;;;;;12.64;63.48;100581.31;7372435;19;19919;-59
2023/12/02 12:20:23;;;;;;;;;;;;;;;12.52;63.38;100575.63;7368720;19;20487;-61
2023/12/02 12:22:48;;;;;;;;;;;;;;;12.38;63.70;100568.22;7360212;19;19919;-61
2023/12/02 12:25:14;;;;;;;;;;;;;;;12.27;63.78;100575.56;7360075;19;19933;-59
2023/12/02 12:27:39;;;;;;;;;;;;;;;12.13;63.76;100579.47;7356268;19;19945;-59
2023/12/02 12:30:05;;;;;;;;;;;;;;;12.00;64.33;100572.03;7356427;19;19926;-60
2023/12/02 12:32:31;;;;;;;;;;;;;;;11.94;64.82;100570.47;7360593;19;19941;-60
2023/12/02 12:34:56;;;;;;;;;;;;;;;12.00;65.60;100577.28;7370191;19;19927;-60
2023/12/02 12:37:22;;;;;;;;;;;;;;;12.07;65.71;100563.97;7367155;19;20487;-60
2023/12/02 12:39:47;;;;;;;;;;;;;;;12.37;66.86;100567.38;7362162;19;19934;-60
2023/12/02 12:42:16;;;;;;;;;;;;;;;12.68;66.86;100564.59;7327582;19;19937;-59
2023/12/02 12:44:41;;;;;;;;;;;;;;;13.00;66.89;100562.63;7362925;19;19922;-59